Pink Coral — 9HPY9 — position and weather

sailwx.info

Track history (hours):
 
Tides and Currents Weather Stations Pressure Air Temp Water Temp Dewpoint Dewpoint Depression Visibility Wind Speed Wind Dir Waves Ship Positions

Pink Coral

Last reported at 2014-Jul-31 04:33 UTC. Time now 2014-Jul-31 05:28 UTC.
Position N 35°19' E 029°11'.

Length 183 m; draft 12 m.

Type: Ship (hazmat cat A). MMSI: 249344000.

Date/timePositionNaut miles runAvg speedWind from/ knotsBaromVisibWave heightAir tempDewpointWater temp
2014-Jul-31 04:33N 35°19' E 029°11'1313.2
2014-Jul-31 03:33N 35°24' E 028°56'1313.1
2014-Jul-31 02:32N 35°28' E 028°40'1313.2
2014-Jul-31 01:33N 35°32' E 028°25'1313.2
2014-Jul-31 00:32N 35°36' E 028°10'2613.0
2014-Jul-30 22:33N 35°45' E 027°40'1413.1
2014-Jul-30 21:31N 35°54' E 027°27'1313.5
2014-Jul-30 20:33N 36°03' E 027°16'1613.6
2014-Jul-30 19:24N 36°15' E 027°04'1113.5
2014-Jul-30 18:33N 36°24' E 026°54'1313.1
2014-Jul-30 17:33N 36°36' E 026°47'1413.8
2014-Jul-30 16:32N 36°49' E 026°41'1413.8
2014-Jul-30 15:33N 37°01' E 026°34'1313.4
2014-Jul-30 14:33N 37°10' E 026°22'1413.5
2014-Jul-30 13:33N 37°19' E 026°09'1313.5
2014-Jul-30 12:33N 37°27' E 025°56'1312.7
2014-Jul-30 11:33N 37°39' E 025°50'1313.5
2014-Jul-30 10:33N 37°53' E 025°48'1413.6
2014-Jul-30 09:34N 38°06' E 025°45'1313.3
2014-Jul-30 08:33N 38°19' E 025°43'1413.6
2014-Jul-30 07:33N 38°33' E 025°42'4713.8
2014-Jul-30 04:12N 39°19' E 025°40'913.5
2014-Jul-30 03:33N 39°28' E 025°42'1513.6
2014-Jul-30 02:28N 39°42' E 025°46'1213.1
2014-Jul-30 01:34N 39°54' E 025°50'1413.4
2014-Jul-30 00:31N 40°01' E 026°06'2911.8
2014-Jul-29 22:04N 40°19' E 026°36'814.4
2014-Jul-29 21:29N 40°25' E 026°43'  
Track history (hours):
 
Tides and Currents Weather Stations Pressure Air Temp Water Temp Dewpoint Dewpoint Depression Visibility Wind Speed Wind Dir Waves Ship Positions

Pink Coral

Last reported at 2014-Jul-31 04:33 UTC. Time now 2014-Jul-31 05:28 UTC.
Position N 35°19' E 029°11'.

Length 183 m; draft 12 m.

Type: Ship (hazmat cat A). MMSI: 249344000.

Date/timePositionNaut miles runAvg speedWind from/ knotsBaromVisibWave heightAir tempDewpointWater temp
2014-Jul-31 04:33N 35°19' E 029°11'1313.2
2014-Jul-31 03:33N 35°24' E 028°56'1313.1
2014-Jul-31 02:32N 35°28' E 028°40'1313.2
2014-Jul-31 01:33N 35°32' E 028°25'1313.2
2014-Jul-31 00:32N 35°36' E 028°10'2613.0
2014-Jul-30 22:33N 35°45' E 027°40'1413.1
2014-Jul-30 21:31N 35°54' E 027°27'1313.5
2014-Jul-30 20:33N 36°03' E 027°16'1613.6
2014-Jul-30 19:24N 36°15' E 027°04'1113.5
2014-Jul-30 18:33N 36°24' E 026°54'1313.1
2014-Jul-30 17:33N 36°36' E 026°47'1413.8
2014-Jul-30 16:32N 36°49' E 026°41'1413.8
2014-Jul-30 15:33N 37°01' E 026°34'1313.4
2014-Jul-30 14:33N 37°10' E 026°22'1413.5
2014-Jul-30 13:33N 37°19' E 026°09'1313.5
2014-Jul-30 12:33N 37°27' E 025°56'1312.7
2014-Jul-30 11:33N 37°39' E 025°50'1313.5
2014-Jul-30 10:33N 37°53' E 025°48'1413.6
2014-Jul-30 09:34N 38°06' E 025°45'1313.3
2014-Jul-30 08:33N 38°19' E 025°43'1413.6
2014-Jul-30 07:33N 38°33' E 025°42'4713.8
2014-Jul-30 04:12N 39°19' E 025°40'913.5
2014-Jul-30 03:33N 39°28' E 025°42'1513.6
2014-Jul-30 02:28N 39°42' E 025°46'1213.1
2014-Jul-30 01:34N 39°54' E 025°50'1413.4
2014-Jul-30 00:31N 40°01' E 026°06'2911.8
2014-Jul-29 22:04N 40°19' E 026°36'814.4
2014-Jul-29 21:29N 40°25' E 026°43'  

Dump ship's entire track history